Forest City, IA

2:43 PM CST on February 06, 2016 (GMT -0600)
Forest City Municipal | | Change Station
CLOSE
Current Station
Airport
Location: Forest City,
Elevation: 1230 ft
Nearby Weather Stations
Active Advisory: Blizzard Watch

Elev 1230 ft 43.23 °N, 93.62 °W | Updated 8 minutes ago

Overcast
Overcast
30 °F
Feels Like 20 °F
N
13
Wind Variable Wind from SSW
Gusts 17 mph

Today
High -- | Low -- °F
--% Chance of Precip.
Yesterday
High -- | Low -- °F
Precip. -- in
Pressure 30.05 in
Visibility 5.0 miles
Clouds Overcast 400 ft
Windchill 20 °F
Dew Point 30 °F
Humidity 100%
Rainfall 0.00 in
Snow Depth Not available.
7:24 AM 5:32 PM
Waning Crescent, 4% visible
METAR KFXY 062035Z AUTO 20011G15KT 5SM BR OVC004 M01/M01 A3005 RMK AO2
Pressure 30.05 in
Visibility 5.0 miles
Clouds Overcast 400 ft
Windchill 20 °F
Dew Point 30 °F
Humidity 100%
Rainfall 0.00 in
Snow Depth Not available.
7:24 AM 5:32 PM
Waning Crescent, 4% visible
METAR KFXY 062035Z AUTO 20011G15KT 5SM BR OVC004 M01/M01 A3005 RMK AO2

10-Day Weather Forecast

Almanac

Astronomy

Feb. 06, 2016 Rise Set
Actual Time
Civil Twilight
Nautical Twilight
Astronomical Twilight
Moon
Length of Visible Light
Length of Day
Tomorrow will be .
, % of the Moon is Illuminated

Today's Extremes

State Highs State Lows

Community

WunderPhotos

Upload Photos

1,891,046 photos uploaded!

WunderBlog® & News

Nearby

Air Quality

  Air Quality AQ Index Pollutant
Not available.

Snow Depth

Station Depth Elevation

Earthquake Activity

City Distance Mag. Time & Date
Minimum magnitude displayed is 2.5.

Coastal Water Temperatures

Place Temperature

Stations

Nearby Weather Stations

Station Location Temp. Windchill Dew Point Humidity Wind Precip. Elev Updated Type
                   

Watches & Warnings

Blizzard Watch
Issued: 11:58 AM CST Feb. 6, 2016 – National Weather Service

... Blizzard watch remains in effect from Sunday afternoon through
Monday morning...

* timing... late Sunday afternoon through Monday morning.

* Storm total snow accumulations... up to 2 inches.

* Winds/visibility... northwest winds 25 to 35 mph with gusts in
excess of 45 mph. Visibilities may drop below one quarter mile
for an extended period with near whiteout conditions possible
at times.

* Impacts... considerable blowing and drifting snow can create
treacherous travel conditions and even lead to nearly
impossible travel in some areas.

Precautionary/preparedness actions...

A blizzard watch means there is a potential for falling and/or
blowing snow with strong winds and extremely poor visibilities.
This can lead to whiteout conditions and make travel very
dangerous.



Podrazik